Dallas Love Field
KDAL : now visible

Airfield :











YOU CAN JOIN US ON...

 
LOGIN :

Register | Disclaimer

   EN    FR    IT 

 









Legend :    VFR   Marginal VFR   IFR   Intensive IFR   Very Intensive IFR
Visi :
Ceiling :
>= 8 km
>= 3000ft
5 to 8 km
1000 to 3000 ft
1500m to 5 km
500 to 1000 ft
800 to 1500m
200 to 500 ft
< 800m
< 200 ft
Symbols :   Thunderstorms  Fog  Heavy snow  Heavy precipitations  Wind > 20 kt







- Airport Elevation : 487 ft
- IATA code : DAL


KDAL - Dallas Love Field

CURRENT METAR :
  • 261453Z 18012G18KT 10SM BKN023 BKN300 26/20 A3007 RMK AO2 SLP176 BKN023 V SCT T02610200 51010

EXPIRED METARs :
  • 261353Z 17008KT 10SM BKN015 BKN300 25/21 A3006 RMK AO2 SLP173 T02500206
  • 261343Z 17008KT 10SM BKN015 BKN300 24/21 A3007 RMK AO2 T02440206
  • 261308Z 15011KT 10SM BKN013 BKN190 BKN300 24/21 A3006 RMK AO2 ACC DSNT NW T02440206
  • 261253Z 16011G14KT 10SM SCT015 SCT190 BKN300 24/21 A3006 RMK AO2 SLP171 ACC DSNT NW T02390206

TAF KDAL
Valid from the 26 at 14:00 until the 27 at 12:00 UTC


261401Z 2614/2712 16015KT P6SM BKN015 BKN250
FM261500 17015KT P6SM SCT030 BKN250
TEMPO 2615/2617 BKN025
FM271000 17013KT P6SM BKN025
KZFW FIR / North America



MET'MAP, your aeronautical weather chart ! - Copyright ORBIFLY December 2007 - Disclaimer

ORBIFLY MET'MAP TEAM :

Programming & Development : Alexandra Zaïnal
Concept & Development : Baudouin d'Aumeries
Co-Development & Prog : Marc-Olivier Méhu
Technical & hardware support : Manuel Goepfert

Contact : metmap@orbifly.com




SOURCES & CREDITS :

   NOAA       Earth
Advisory